createdAt,value
2023-03-05T00:00:13.375Z,65.12
2023-03-05T00:03:16.317Z,65.32
2023-03-05T00:06:24.066Z,64.46
2023-03-05T00:09:26.799Z,64.61
2023-03-05T00:12:30.282Z,64.46
2023-03-05T00:15:32.986Z,63.69
2023-03-05T00:18:35.979Z,63.14
2023-03-05T00:21:42.221Z,62.87
2023-03-05T00:24:44.953Z,63.30
2023-03-05T00:27:47.659Z,63.17
2023-03-05T00:30:50.704Z,63.08
2023-03-05T00:33:55.290Z,63.08
2023-03-05T00:36:58.602Z,62.85
2023-03-05T00:40:01.399Z,63.40
2023-03-05T00:43:04.922Z,63.35
2023-03-05T00:46:07.778Z,62.98
2023-03-05T00:49:10.663Z,63.15
2023-03-05T00:52:13.527Z,63.06
2023-03-05T00:55:16.329Z,62.99
2023-03-05T00:58:19.092Z,63.26
2023-03-05T01:01:21.863Z,63.65
2023-03-05T01:04:24.736Z,63.68
2023-03-05T01:07:27.529Z,64.17
2023-03-05T01:10:30.434Z,65.40
2023-03-05T01:13:33.536Z,65.21
2023-03-05T01:16:36.284Z,65.46
2023-03-05T01:19:46.643Z,66.37
2023-03-05T01:22:50.089Z,66.10
2023-03-05T01:25:56.832Z,66.84
2023-03-05T01:28:59.930Z,66.82
2023-03-05T01:32:02.757Z,67.07
2023-03-05T01:35:06.537Z,66.89
2023-03-05T01:38:09.298Z,67.03
2023-03-05T01:41:14.024Z,65.85
2023-03-05T01:44:22.394Z,65.58
2023-03-05T01:47:25.150Z,65.54
2023-03-05T01:50:28.396Z,65.52
2023-03-05T01:53:31.855Z,65.70
2023-03-05T01:56:35.256Z,65.50
2023-03-05T01:59:40.573Z,66.15
2023-03-05T02:02:49.928Z,66.11
2023-03-05T02:05:52.783Z,66.02
2023-03-05T02:08:55.631Z,65.86
2023-03-05T02:11:59.059Z,66.36
2023-03-05T02:15:01.885Z,66.51
2023-03-05T02:18:06.917Z,66.52
2023-03-05T02:21:10.703Z,66.46
2023-03-05T02:24:15.212Z,66.98
2023-03-05T02:27:19.668Z,67.36
2023-03-05T02:30:22.594Z,67.49
2023-03-05T02:33:25.408Z,67.67
2023-03-05T02:36:28.343Z,67.51
2023-03-05T02:39:32.165Z,67.02
2023-03-05T02:42:35.533Z,66.50
2023-03-05T02:45:39.053Z,66.62
2023-03-05T02:48:42.507Z,66.47
2023-03-05T02:51:47.854Z,66.86
2023-03-05T02:54:50.646Z,66.36
2023-03-05T02:57:53.778Z,65.43
2023-03-05T03:00:58.354Z,65.11
2023-03-05T03:04:01.314Z,65.12
2023-03-05T03:07:04.213Z,64.67
2023-03-05T03:10:07.590Z,64.86
2023-03-05T03:13:10.317Z,64.96
2023-03-05T03:16:15.168Z,64.83
2023-03-05T03:19:17.918Z,65.34
2023-03-05T03:22:20.736Z,65.52
2023-03-05T03:25:23.584Z,65.84
2023-03-05T03:28:28.404Z,66.04
2023-03-05T03:31:31.109Z,66.37
2023-03-05T03:34:34.003Z,67.47
2023-03-05T03:37:36.760Z,66.24
2023-03-05T03:40:41.252Z,66.33
2023-03-05T03:43:43.999Z,65.20
2023-03-05T03:46:48.243Z,64.27
2023-03-05T03:49:55.234Z,64.26
2023-03-05T03:52:58.048Z,64.42
2023-03-05T03:56:00.938Z,63.60
2023-03-05T03:59:03.840Z,64.24
2023-03-05T04:02:06.666Z,63.89
2023-03-05T04:05:09.708Z,64.41
2023-03-05T04:08:13.193Z,64.35
2023-03-05T04:11:16.262Z,65.44
2023-03-05T04:14:19.226Z,66.33
2023-03-05T04:17:22.171Z,66.79
2023-03-05T04:20:24.894Z,67.30
2023-03-05T04:23:27.561Z,67.62
2023-03-05T04:26:30.331Z,67.47
2023-03-05T04:29:33.908Z,67.43
2023-03-05T04:32:36.905Z,67.52
2023-03-05T04:35:39.918Z,67.44
2023-03-05T04:38:42.735Z,67.24
2023-03-05T04:41:45.639Z,67.14
2023-03-05T04:44:49.750Z,67.06
2023-03-05T04:47:52.655Z,66.30
2023-03-05T04:50:57.869Z,66.02
2023-03-05T04:54:00.724Z,65.53
2023-03-05T04:57:03.698Z,65.25
2023-03-05T05:00:14.491Z,66.34
2023-03-05T05:03:17.350Z,66.06
2023-03-05T05:06:20.086Z,66.50
2023-03-05T05:09:23.376Z,66.80
2023-03-05T05:12:30.763Z,66.20
2023-03-05T05:15:33.592Z,66.37
2023-03-05T05:18:36.547Z,66.27
2023-03-05T05:21:39.877Z,65.83
2023-03-05T05:24:42.862Z,66.07
2023-03-05T05:27:45.628Z,66.08
2023-03-05T05:30:48.341Z,65.65
2023-03-05T05:33:51.116Z,65.61
2023-03-05T05:36:53.865Z,65.13
2023-03-05T05:39:56.668Z,64.76
2023-03-05T05:42:59.470Z,64.16
2023-03-05T05:46:08.364Z,63.23
2023-03-05T05:49:11.313Z,62.81
2023-03-05T05:52:14.358Z,62.69
2023-03-05T05:55:17.217Z,63.27
2023-03-05T05:58:20.119Z,63.89
2023-03-05T06:01:32.047Z,64.18
2023-03-05T06:04:36.214Z,65.39
2023-03-05T06:07:39.177Z,65.91
2023-03-05T06:10:41.988Z,66.92
2023-03-05T06:13:45.370Z,66.77
2023-03-05T06:16:48.143Z,67.43
2023-03-05T06:19:50.889Z,67.22
2023-03-05T06:22:53.585Z,67.32
2023-03-05T06:26:00.000Z,66.75
2023-03-05T06:29:03.417Z,66.37
2023-03-05T06:32:06.654Z,65.62
2023-03-05T06:35:09.555Z,65.67
2023-03-05T06:38:12.396Z,65.29
2023-03-05T06:41:17.878Z,64.41
2023-03-05T06:44:20.649Z,63.77
2023-03-05T06:47:23.368Z,62.48
2023-03-05T06:50:26.284Z,61.91
2023-03-05T06:53:29.362Z,61.57
2023-03-05T06:56:32.614Z,61.97
2023-03-05T06:59:35.315Z,63.38
2023-03-05T07:02:38.772Z,63.89
2023-03-05T07:05:43.579Z,64.27
2023-03-05T07:08:46.888Z,63.99
2023-03-05T07:11:49.609Z,63.85
2023-03-05T07:14:52.521Z,63.18
2023-03-05T07:17:56.689Z,62.46
2023-03-05T07:21:07.216Z,61.37
2023-03-05T07:24:12.231Z,61.32
2023-03-05T07:27:14.953Z,60.60
2023-03-05T07:30:18.097Z,61.11
2023-03-05T07:33:20.888Z,60.87
2023-03-05T07:36:24.296Z,60.44
2023-03-05T07:39:27.075Z,60.20
2023-03-05T07:42:30.155Z,59.94
2023-03-05T07:45:46.550Z,59.58
2023-03-05T07:48:49.801Z,59.92
2023-03-05T07:51:52.574Z,59.50
2023-03-05T07:54:55.283Z,59.57
2023-03-05T07:57:58.053Z,59.12
2023-03-05T08:01:00.860Z,58.53
2023-03-05T08:04:05.093Z,57.95
2023-03-05T08:07:08.078Z,58.53
2023-03-05T08:10:11.392Z,58.46
2023-03-05T08:13:14.139Z,58.16
2023-03-05T08:16:22.026Z,57.51
2023-03-05T08:19:24.774Z,56.81
2023-03-05T08:22:27.651Z,55.75
2023-03-05T08:25:31.568Z,54.93
2023-03-05T08:28:34.517Z,53.75
2023-03-05T08:31:38.122Z,52.40
2023-03-05T08:34:40.936Z,52.52
2023-03-05T08:37:43.831Z,52.51
2023-03-05T08:40:46.620Z,53.58
2023-03-05T08:43:49.421Z,52.19
2023-03-05T08:46:52.148Z,52.32
2023-03-05T08:49:57.346Z,51.82
2023-03-05T08:53:00.321Z,51.11
2023-03-05T08:56:03.825Z,51.04
2023-03-05T08:59:07.040Z,51.48
2023-03-05T09:02:12.936Z,51.47
2023-03-05T09:05:16.234Z,53.13
2023-03-05T09:08:19.487Z,52.97
2023-03-05T09:11:22.464Z,51.92
2023-03-05T09:14:28.244Z,50.91
2023-03-05T09:17:31.035Z,51.46
2023-03-05T09:20:34.062Z,52.47
2023-03-05T09:23:36.837Z,52.22
2023-03-05T09:26:41.464Z,51.10
2023-03-05T09:29:44.172Z,50.44
2023-03-05T09:32:47.081Z,51.08
2023-03-05T09:35:50.057Z,50.72
2023-03-05T09:38:55.177Z,51.09
2023-03-05T09:42:25.748Z,50.48
2023-03-05T09:45:33.154Z,51.28
2023-03-05T09:48:50.241Z,52.44
2023-03-05T09:52:02.165Z,50.20
2023-03-05T09:55:14.009Z,52.02
2023-03-05T09:58:31.576Z,51.21
2023-03-05T10:01:42.283Z,51.65
2023-03-05T10:05:04.181Z,51.31
2023-03-05T10:08:06.992Z,51.04
2023-03-05T10:11:23.719Z,50.76
2023-03-05T10:14:30.800Z,49.59
2023-03-05T10:18:08.682Z,51.90
2023-03-05T10:21:17.302Z,49.27
2023-03-05T10:24:38.693Z,49.97
2023-03-05T10:27:55.181Z,50.55
2023-03-05T10:31:24.981Z,48.53
2023-03-05T10:34:33.924Z,48.11
2023-03-05T10:37:47.237Z,46.99
2023-03-05T10:40:57.107Z,46.39
2023-03-05T10:44:21.794Z,47.90
2023-03-05T10:47:27.961Z,47.65
2023-03-05T10:50:49.548Z,46.79
2023-03-05T10:53:56.291Z,46.91
2023-03-05T10:57:20.093Z,45.88
2023-03-05T11:00:28.236Z,45.95
2023-03-05T11:04:08.117Z,44.45
2023-03-05T11:07:16.653Z,45.34
2023-03-05T11:10:21.602Z,46.13
2023-03-05T11:13:27.742Z,45.14
2023-03-05T11:16:33.529Z,46.63
2023-03-05T11:19:37.779Z,44.20
2023-03-05T11:22:40.839Z,43.93
2023-03-05T11:25:54.523Z,43.79
2023-03-05T11:29:03.303Z,43.34
2023-03-05T11:32:20.260Z,42.98
2023-03-05T11:35:38.096Z,45.63
2023-03-05T11:38:52.835Z,44.20
2023-03-05T11:42:01.446Z,43.77
2023-03-05T11:45:05.051Z,43.53
2023-03-05T11:48:20.253Z,43.24
2023-03-05T11:51:31.719Z,41.99
2023-03-05T11:54:42.968Z,43.12
2023-03-05T11:58:04.928Z,43.17
2023-03-05T12:01:16.161Z,41.80
2023-03-05T12:04:20.817Z,40.95
2023-03-05T12:07:46.496Z,41.59
2023-03-05T12:10:49.317Z,41.91
2023-03-05T12:13:58.143Z,41.32
2023-03-05T12:17:12.705Z,41.89
2023-03-05T12:20:54.060Z,42.31
2023-03-05T12:24:01.500Z,41.25
2023-03-05T12:27:04.655Z,41.28
2023-03-05T12:30:36.696Z,42.03
2023-03-05T12:33:43.745Z,42.77
2023-03-05T12:36:46.515Z,43.33
2023-03-05T12:39:59.186Z,43.80
2023-03-05T12:43:30.141Z,43.62
2023-03-05T12:46:42.232Z,43.03
2023-03-05T12:49:46.356Z,42.93
2023-03-05T12:52:49.387Z,43.64
2023-03-05T12:56:01.309Z,42.63
2023-03-05T12:59:04.538Z,42.67
2023-03-05T13:02:39.434Z,43.02
2023-03-05T13:05:51.237Z,43.18
2023-03-05T13:09:24.757Z,42.28
2023-03-05T13:12:30.141Z,41.77
2023-03-05T13:15:33.041Z,42.81
2023-03-05T13:18:39.543Z,41.70
2023-03-05T13:21:42.528Z,40.44
2023-03-05T13:24:47.219Z,41.14
2023-03-05T13:27:50.321Z,42.09
2023-03-05T13:31:02.746Z,41.18
2023-03-05T13:34:15.400Z,42.30
2023-03-05T13:37:25.107Z,42.02
2023-03-05T13:40:33.087Z,41.92
2023-03-05T13:43:43.192Z,44.52
2023-03-05T13:46:46.130Z,43.84
2023-03-05T13:49:56.807Z,43.18
2023-03-05T13:53:18.208Z,44.08
2023-03-05T13:56:21.643Z,43.60
2023-03-05T13:59:35.768Z,42.76
2023-03-05T14:02:43.249Z,41.92
2023-03-05T14:05:52.839Z,43.45
2023-03-05T14:09:05.344Z,43.67
2023-03-05T14:12:34.008Z,43.21
2023-03-05T14:15:36.741Z,42.90
2023-03-05T14:18:50.979Z,43.04
2023-03-05T14:21:53.918Z,43.15
2023-03-05T14:24:56.915Z,43.17
2023-03-05T14:28:03.046Z,43.24
2023-03-05T14:31:16.270Z,43.90
2023-03-05T14:34:41.139Z,43.51
2023-03-05T14:37:49.196Z,44.48
2023-03-05T14:40:52.193Z,43.59
2023-03-05T14:43:56.413Z,42.95
2023-03-05T14:46:59.316Z,43.73
2023-03-05T14:50:02.112Z,42.92
2023-03-05T14:53:13.862Z,43.20
2023-03-05T14:56:23.211Z,47.40
2023-03-05T14:59:26.256Z,47.26
2023-03-05T15:02:29.511Z,47.58
2023-03-05T15:05:33.437Z,48.50
2023-03-05T15:08:36.495Z,49.34
2023-03-05T15:11:39.609Z,50.80
2023-03-05T15:14:43.622Z,51.75
2023-03-05T15:17:48.277Z,52.91
2023-03-05T15:20:53.230Z,53.40
2023-03-05T15:23:56.030Z,53.21
2023-03-05T15:26:58.807Z,53.99
2023-03-05T15:30:01.903Z,54.56
2023-03-05T15:33:08.681Z,54.42
2023-03-05T15:36:11.807Z,54.83
2023-03-05T15:39:15.980Z,54.84
2023-03-05T15:42:19.452Z,55.37
2023-03-05T15:45:22.900Z,54.87
2023-03-05T15:48:25.992Z,55.45
2023-03-05T15:51:29.053Z,55.59
2023-03-05T15:54:32.168Z,55.63
2023-03-05T15:57:43.819Z,55.47
2023-03-05T16:00:47.698Z,56.65
2023-03-05T16:03:51.622Z,57.30
2023-03-05T16:06:54.935Z,55.66
2023-03-05T16:09:58.688Z,54.79
2023-03-05T16:13:04.693Z,54.38
2023-03-05T16:16:09.227Z,55.13
2023-03-05T16:19:15.805Z,55.12
2023-03-05T16:22:20.223Z,55.24
2023-03-05T16:25:24.118Z,55.23
2023-03-05T16:28:27.208Z,55.19
2023-03-05T16:31:35.625Z,53.79
2023-03-05T16:34:38.673Z,53.41
2023-03-05T16:37:42.027Z,53.22
2023-03-05T16:41:06.827Z,53.65
2023-03-05T16:44:08.213Z,54.30
2023-03-05T16:47:12.422Z,53.56
2023-03-05T16:50:15.478Z,53.93
2023-03-05T16:53:18.782Z,53.84
2023-03-05T16:56:21.921Z,54.08
2023-03-05T16:59:25.397Z,54.32
2023-03-05T17:02:29.209Z,54.29
2023-03-05T17:05:35.212Z,54.75
2023-03-05T17:08:40.019Z,55.82
2023-03-05T17:11:43.167Z,56.59
2023-03-05T17:14:46.395Z,57.22
2023-03-05T17:17:49.589Z,57.38
2023-03-05T17:20:53.800Z,56.95
2023-03-05T17:23:56.984Z,56.36
2023-03-05T17:27:01.125Z,56.50
2023-03-05T17:30:05.568Z,56.17
2023-03-05T17:33:09.813Z,56.82
2023-03-05T17:36:21.638Z,57.07
2023-03-05T17:39:24.714Z,57.62
2023-03-05T17:42:28.171Z,57.54
2023-03-05T17:45:32.629Z,57.58
2023-03-05T17:48:39.116Z,57.83
2023-03-05T17:51:42.143Z,58.41
2023-03-05T17:54:46.217Z,58.39
2023-03-05T17:57:49.215Z,58.93
2023-03-05T18:00:52.566Z,59.29
2023-03-05T18:03:56.615Z,58.59
2023-03-05T18:06:59.710Z,59.21
2023-03-05T18:10:03.528Z,58.72
2023-03-05T18:13:06.703Z,59.13
2023-03-05T18:16:14.418Z,58.56
2023-03-05T18:19:19.417Z,58.83
2023-03-05T18:22:22.316Z,59.29
2023-03-05T18:25:31.137Z,58.95
2023-03-05T18:28:34.469Z,58.94
2023-03-05T18:31:37.954Z,59.42
2023-03-05T18:34:41.098Z,58.78
2023-03-05T18:37:44.192Z,58.86
2023-03-05T18:40:47.937Z,59.51
2023-03-05T18:43:53.851Z,59.84
2023-03-05T18:46:56.651Z,59.80
2023-03-05T18:49:59.856Z,59.98
2023-03-05T18:53:03.055Z,61.59
2023-03-05T18:56:06.791Z,60.81
2023-03-05T18:59:09.883Z,60.85
2023-03-05T19:02:16.704Z,60.86
2023-03-05T19:05:20.846Z,61.19
2023-03-05T19:08:24.027Z,61.65
2023-03-05T19:11:27.310Z,62.52
2023-03-05T19:14:30.756Z,62.75
2023-03-05T19:17:33.743Z,63.24
2023-03-05T19:20:36.966Z,63.42
2023-03-05T19:23:40.018Z,63.83
2023-03-05T19:26:44.146Z,63.55
2023-03-05T19:29:47.313Z,63.51
2023-03-05T19:32:50.463Z,64.03
2023-03-05T19:35:54.228Z,65.72
2023-03-05T19:38:59.737Z,67.48
2023-03-05T19:42:03.967Z,66.97
2023-03-05T19:45:07.968Z,67.23
2023-03-05T19:48:11.022Z,67.08
2023-03-05T19:51:20.340Z,66.34
2023-03-05T19:54:23.666Z,67.17
2023-03-05T19:57:26.792Z,66.64
2023-03-05T20:00:29.844Z,66.32
2023-03-05T20:03:32.970Z,64.79
2023-03-05T20:06:35.964Z,65.90
2023-03-05T20:09:39.095Z,66.86
2023-03-05T20:12:44.107Z,67.39
2023-03-05T20:15:47.134Z,69.21
2023-03-05T20:18:54.908Z,69.73
2023-03-05T20:21:58.060Z,69.09
2023-03-05T20:25:01.007Z,68.63
2023-03-05T20:28:04.589Z,68.36
2023-03-05T20:31:07.420Z,68.61
2023-03-05T20:34:12.811Z,68.63
2023-03-05T20:37:15.566Z,69.13
2023-03-05T20:41:00.284Z,69.15
2023-03-05T20:44:04.302Z,69.61
2023-03-05T20:47:44.813Z,69.22
2023-03-05T20:50:48.021Z,68.76
2023-03-05T20:53:54.361Z,68.11
2023-03-05T20:56:57.481Z,67.44
2023-03-05T21:00:00.953Z,69.74
2023-03-05T21:03:04.796Z,71.05
2023-03-05T21:06:08.542Z,71.20
2023-03-05T21:09:11.351Z,70.91
2023-03-05T21:12:15.434Z,71.13
2023-03-05T21:15:22.536Z,72.22
2023-03-05T21:18:28.297Z,72.27
2023-03-05T21:21:31.744Z,72.83
2023-03-05T21:25:27.731Z,72.93
2023-03-05T21:28:31.923Z,71.96
2023-03-05T21:31:34.964Z,71.26
2023-03-05T21:34:37.975Z,71.05
2023-03-05T21:37:42.698Z,70.72
2023-03-05T21:40:48.542Z,70.73
2023-03-05T21:43:51.386Z,70.94
2023-03-05T21:46:54.137Z,71.20
2023-03-05T21:49:57.320Z,71.32
2023-03-05T21:53:00.995Z,71.31
2023-03-05T21:56:39.183Z,71.07
2023-03-05T21:59:42.314Z,70.97
2023-03-05T22:02:45.977Z,71.21
2023-03-05T22:05:48.696Z,74.21
2023-03-05T22:08:51.500Z,73.61
2023-03-05T22:11:54.236Z,73.41
2023-03-05T22:14:56.999Z,73.46
2023-03-05T22:18:00.461Z,73.49
2023-03-05T22:21:04.102Z,73.33
2023-03-05T22:24:06.951Z,73.04
2023-03-05T22:27:09.766Z,73.30
2023-03-05T22:30:14.561Z,73.81
2023-03-05T22:33:17.333Z,73.61
2023-03-05T22:36:20.988Z,74.20
2023-03-05T22:39:23.993Z,74.13
2023-03-05T22:42:26.861Z,73.14
2023-03-05T22:45:29.658Z,73.13
2023-03-05T22:48:32.404Z,73.39
2023-03-05T22:51:35.668Z,73.78
2023-03-05T22:54:38.512Z,73.38
2023-03-05T22:57:42.189Z,72.76
2023-03-05T23:00:45.153Z,72.11
2023-03-05T23:04:42.640Z,73.24
2023-03-05T23:07:45.878Z,72.92
2023-03-05T23:10:49.000Z,73.56
2023-03-05T23:13:51.735Z,73.23
2023-03-05T23:16:54.411Z,72.19
2023-03-05T23:19:57.134Z,71.09
2023-03-05T23:23:00.725Z,69.98
2023-03-05T23:26:03.732Z,69.36
2023-03-05T23:29:06.633Z,69.28
2023-03-05T23:32:09.994Z,69.14
2023-03-05T23:35:15.776Z,69.18
2023-03-05T23:38:19.013Z,69.09
2023-03-05T23:41:21.751Z,68.80
2023-03-05T23:44:24.524Z,68.58
2023-03-05T23:47:27.802Z,68.49
2023-03-05T23:50:36.394Z,68.12
2023-03-05T23:53:39.180Z,67.70
2023-03-05T23:56:42.280Z,67.68
2023-03-05T23:59:45.327Z,67.84
